Time;durP1;ratioP1;P1;durP2;ratioP2;P2;SDS_P1;SDS_P2;PMS_P1;PMS_P2;Temp;Humidity;BMP_temperature;BMP_pressure;BME280_temperature;BME280_humidity;BME280_pressure;Samples;Min_cycle;Max_cycle;Signal;HPM_P1;HPM_P2
2023/07/27 00:00:00;;;;;;;2.33;2.13;;;13.60;97.50;;;;;;4983171;28;20637;-72
2023/07/27 00:02:27;;;;;;;3.87;2.43;;;13.70;97.40;;;;;;4974672;28;20764;-72
2023/07/27 00:04:54;;;;;;;2.20;2.00;;;13.80;97.00;;;;;;4979862;28;20659;-72
2023/07/27 00:07:20;;;;;;;1.80;1.70;;;13.80;96.80;;;;;;4986323;28;20708;-72
2023/07/27 00:09:48;;;;;;;2.33;2.03;;;13.80;96.70;;;;;;4978589;28;21041;-72
2023/07/27 00:12:15;;;;;;;2.43;2.20;;;13.80;96.80;;;;;;4984199;28;20979;-72
2023/07/27 00:14:42;;;;;;;3.47;1.90;;;13.70;96.90;;;;;;4982690;28;21212;-72
2023/07/27 00:17:09;;;;;;;2.40;2.07;;;13.80;97.00;;;;;;4981307;28;20659;-72
2023/07/27 00:19:36;;;;;;;2.27;2.00;;;13.70;96.80;;;;;;4981741;28;20633;-72
2023/07/27 00:22:03;;;;;;;2.17;1.97;;;13.70;97.20;;;;;;4976511;28;20766;-72
2023/07/27 00:24:29;;;;;;;2.70;2.20;;;13.70;97.30;;;;;;4978810;28;21013;-72
2023/07/27 00:26:58;;;;;;;2.47;2.27;;;13.80;96.90;;;;;;4981726;28;21244;-72
2023/07/27 00:29:24;;;;;;;2.20;2.00;;;13.80;96.90;;;;;;4978009;28;20628;-72
2023/07/27 00:31:51;;;;;;;1.83;1.73;;;13.80;97.20;;;;;;4975685;28;21238;-72
2023/07/27 00:34:18;;;;;;;2.83;2.63;;;13.80;97.10;;;;;;4980888;28;21056;-72
2023/07/27 00:36:45;;;;;;;2.00;1.80;;;13.80;97.10;;;;;;4978498;28;20656;-72
2023/07/27 00:39:12;;;;;;;2.53;2.33;;;13.80;97.10;;;;;;4982643;28;20629;-72
2023/07/27 00:41:40;;;;;;;2.17;2.00;;;13.80;97.20;;;;;;4977287;28;20748;-72
2023/07/27 00:44:09;;;;;;;2.47;2.27;;;13.90;97.40;;;;;;4982231;28;20625;-73
2023/07/27 00:46:36;;;;;;;2.30;1.63;;;13.90;97.00;;;;;;4981583;28;20757;-72
2023/07/27 00:49:03;;;;;;;2.23;2.03;;;13.90;97.00;;;;;;4974411;28;20633;-71
2023/07/27 00:51:34;;;;;;;2.97;2.47;;;13.80;97.10;;;;;;4977973;28;20664;-71
2023/07/27 00:54:01;;;;;;;2.70;2.00;;;13.80;97.20;;;;;;4980634;28;20629;-71
2023/07/27 00:56:29;;;;;;;2.67;2.27;;;13.80;97.20;;;;;;4984018;28;20724;-71
2023/07/27 00:58:56;;;;;;;2.77;2.57;;;13.80;97.20;;;;;;4979551;28;20630;-72
2023/07/27 01:01:25;;;;;;;1.90;1.67;;;13.70;97.30;;;;;;4980664;28;20656;-72
2023/07/27 01:03:52;;;;;;;2.67;1.97;;;13.80;97.40;;;;;;4984682;28;20632;-72
2023/07/27 01:06:19;;;;;;;2.93;1.87;;;13.70;97.20;;;;;;4976834;28;20776;-71
2023/07/27 01:08:46;;;;;;;1.80;1.70;;;13.70;97.40;;;;;;4979106;28;20641;-72
2023/07/27 01:11:21;;;;;;;2.20;2.00;;;13.70;97.40;;;;;;4980289;28;20662;-71
2023/07/27 01:13:53;;;;;;;2.00;1.90;;;13.70;97.40;;;;;;4978130;28;20627;-71
2023/07/27 01:16:41;;;;;;;3.00;2.30;;;13.70;97.50;;;;;;4980620;28;20665;-72
2023/07/27 01:19:27;;;;;;;2.03;1.90;;;13.70;97.40;;;;;;4978184;28;20636;-72
2023/07/27 01:22:09;;;;;;;2.67;2.23;;;13.70;97.40;;;;;;4977647;28;20693;-71
2023/07/27 01:24:51;;;;;;;3.40;1.57;;;13.70;97.30;;;;;;4979321;28;20665;-71
2023/07/27 01:27:33;;;;;;;2.77;1.90;;;13.70;97.50;;;;;;4977579;28;20753;-71
2023/07/27 01:30:21;;;;;;;2.33;2.00;;;13.80;97.40;;;;;;4980923;28;20736;-72
2023/07/27 01:32:57;;;;;;;2.50;2.00;;;13.70;97.30;;;;;;4977256;28;20640;-72
2023/07/27 01:35:27;;;;;;;2.30;2.10;;;13.70;97.20;;;;;;4975894;28;20669;-71
2023/07/27 01:37:59;;;;;;;2.50;2.23;;;13.70;97.60;;;;;;4978873;28;21056;-71
2023/07/27 01:40:28;;;;;;;2.30;2.00;;;13.70;97.60;;;;;;4981279;28;21020;-71
2023/07/27 01:42:57;;;;;;;1.80;1.67;;;13.70;97.60;;;;;;4977902;28;20634;-72
2023/07/27 01:45:25;;;;;;;2.30;2.10;;;13.70;97.50;;;;;;4983414;28;20665;-71
2023/07/27 01:47:55;;;;;;;2.20;2.00;;;13.60;97.90;;;;;;4974870;28;20634;-71
2023/07/27 01:50:22;;;;;;;2.10;2.00;;;13.60;98.10;;;;;;4979973;28;20638;-72
2023/07/27 01:52:52;;;;;;;2.20;1.83;;;13.60;97.90;;;;;;4978239;28;20741;-72
2023/07/27 01:55:22;;;;;;;3.80;2.40;;;13.60;97.60;;;;;;4983407;28;20635;-72
2023/07/27 01:57:51;;;;;;;1.50;1.40;;;13.60;97.60;;;;;;4986889;28;20691;-72
2023/07/27 02:00:20;;;;;;;2.00;1.90;;;13.70;97.60;;;;;;4976607;28;20996;-71
2023/07/27 02:02:47;;;;;;;2.33;2.13;;;13.60;97.50;;;;;;4976191;28;20661;-71
2023/07/27 02:05:17;;;;;;;2.23;2.03;;;13.60;97.70;;;;;;4978641;28;20625;-71
2023/07/27 02:07:45;;;;;;;2.10;1.80;;;13.60;97.50;;;;;;4980437;28;20722;-72
2023/07/27 02:10:16;;;;;;;2.13;1.97;;;13.60;97.50;;;;;;4978566;28;20976;-72
2023/07/27 02:12:48;;;;;;;2.13;1.93;;;13.50;97.40;;;;;;4975056;28;21276;-73
2023/07/27 02:15:21;;;;;;;2.40;2.20;;;13.60;97.70;;;;;;4977889;28;20688;-72
2023/07/27 02:17:54;;;;;;;2.17;1.73;;;13.70;97.50;;;;;;4978287;28;20749;-72
2023/07/27 02:20:24;;;;;;;2.40;2.20;;;13.60;97.30;;;;;;4979725;28;20652;-72
2023/07/27 02:22:54;;;;;;;2.77;2.00;;;13.60;97.30;;;;;;4991686;28;21046;-72
2023/07/27 02:25:22;;;;;;;2.20;2.00;;;13.60;97.30;;;;;;4978957;28;21225;-72
2023/07/27 02:27:49;;;;;;;1.90;1.80;;;13.60;97.40;;;;;;4979132;28;21047;-72
2023/07/27 02:30:16;;;;;;;2.00;1.60;;;13.60;97.60;;;;;;4979603;28;20636;-72
2023/07/27 02:32:42;;;;;;;2.23;1.33;;;13.50;98.00;;;;;;4976199;28;20627;-72
2023/07/27 02:35:10;;;;;;;1.57;1.47;;;13.50;98.10;;;;;;4978008;28;20691;-72
2023/07/27 02:37:39;;;;;;;2.00;1.87;;;13.50;97.90;;;;;;4979087;28;20629;-72
2023/07/27 02:40:11;;;;;;;1.40;1.30;;;13.60;98.00;;;;;;4976944;28;21112;-72
2023/07/27 02:42:39;;;;;;;1.50;1.40;;;13.50;97.80;;;;;;4979626;28;20715;-71
2023/07/27 02:45:09;;;;;;;2.40;2.30;;;13.50;98.10;;;;;;4979023;28;20629;-71
2023/07/27 02:47:36;;;;;;;2.40;1.97;;;13.60;98.30;;;;;;4977929;28;20650;-72
2023/07/27 02:50:04;;;;;;;1.50;1.40;;;13.60;98.20;;;;;;4984933;28;20986;-71
2023/07/27 02:52:31;;;;;;;1.53;1.40;;;13.70;98.10;;;;;;4978531;28;20634;-71
2023/07/27 02:55:00;;;;;;;2.20;1.97;;;13.60;98.10;;;;;;4984611;28;20954;-71
2023/07/27 02:57:28;;;;;;;1.60;1.50;;;13.70;98.10;;;;;;4985535;28;20638;-71
2023/07/27 02:59:56;;;;;;;2.53;2.33;;;13.70;97.80;;;;;;4976768;28;20637;-71
2023/07/27 03:02:23;;;;;;;1.90;1.67;;;13.70;98.20;;;;;;4987001;28;20695;-71
2023/07/27 03:04:50;;;;;;;2.30;2.00;;;13.70;98.10;;;;;;4983523;28;20736;-71
2023/07/27 03:07:19;;;;;;;2.30;2.10;;;13.70;98.20;;;;;;4981063;28;20692;-71
2023/07/27 03:09:50;;;;;;;2.00;1.90;;;13.70;98.40;;;;;;4978608;28;20945;-71
2023/07/27 03:12:20;;;;;;;2.20;2.03;;;13.80;98.40;;;;;;4985388;28;20743;-71
2023/07/27 03:14:46;;;;;;;1.97;1.43;;;13.80;98.20;;;;;;4976821;28;20633;-72
2023/07/27 03:17:14;;;;;;;2.23;1.90;;;13.80;98.40;;;;;;4983671;28;20760;-71
2023/07/27 03:19:42;;;;;;;1.80;1.70;;;13.80;98.40;;;;;;4980113;28;20632;-72
2023/07/27 03:22:10;;;;;;;2.30;1.93;;;13.80;98.30;;;;;;4989462;28;20684;-72
2023/07/27 03:24:38;;;;;;;1.90;1.70;;;13.90;98.20;;;;;;4980675;28;20630;-72
2023/07/27 03:27:05;;;;;;;2.40;2.20;;;13.90;98.00;;;;;;4980143;28;21256;-72
2023/07/27 03:29:34;;;;;;;2.43;1.80;;;14.00;98.10;;;;;;4980970;28;20626;-72
2023/07/27 03:32:02;;;;;;;2.10;1.33;;;14.00;98.50;;;;;;4986100;28;21023;-72
2023/07/27 03:34:30;;;;;;;1.80;1.60;;;13.90;98.20;;;;;;4980382;28;20637;-72
2023/07/27 03:37:05;;;;;;;2.13;1.93;;;14.00;97.90;;;;;;4984453;28;21407;-74
2023/07/27 03:39:33;;;;;;;2.57;1.50;;;14.00;97.80;;;;;;4988172;28;20702;-71
2023/07/27 03:42:01;;;;;;;2.20;1.30;;;13.90;98.20;;;;;;4977205;28;20720;-71
2023/07/27 03:44:29;;;;;;;1.70;1.60;;;14.00;98.00;;;;;;4980330;28;20708;-71
2023/07/27 03:46:58;;;;;;;2.00;1.70;;;14.00;97.80;;;;;;4980789;28;20665;-73
2023/07/27 03:49:27;;;;;;;1.93;1.80;;;14.00;97.90;;;;;;4974128;28;20633;-72
2023/07/27 03:51:54;;;;;;;1.70;1.60;;;14.00;97.90;;;;;;4980270;28;20761;-72
2023/07/27 03:54:21;;;;;;;1.73;1.63;;;14.00;98.20;;;;;;4978542;28;21043;-72
2023/07/27 03:56:47;;;;;;;1.73;1.40;;;14.00;98.00;;;;;;4980783;28;21241;-72
2023/07/27 03:59:14;;;;;;;2.07;1.97;;;14.10;98.00;;;;;;4975602;28;20641;-72
2023/07/27 04:01:41;;;;;;;2.47;1.83;;;14.10;97.70;;;;;;4978637;28;21066;-72
2023/07/27 04:04:10;;;;;;;1.53;1.40;;;14.10;97.70;;;;;;4983653;28;20629;-72
2023/07/27 04:06:37;;;;;;;2.20;1.70;;;14.10;97.90;;;;;;4979371;28;20836;-72
2023/07/27 04:09:04;;;;;;;1.80;1.70;;;14.20;97.70;;;;;;4978869;28;20633;-72
2023/07/27 04:11:33;;;;;;;2.90;1.90;;;14.30;97.90;;;;;;4981956;28;20685;-72
2023/07/27 04:14:00;;;;;;;1.70;1.60;;;14.20;97.60;;;;;;4979571;28;20629;-73
2023/07/27 04:16:26;;;;;;;5.00;2.20;;;14.30;97.40;;;;;;4977437;28;20658;-73
2023/07/27 04:18:53;;;;;;;2.07;1.87;;;14.30;97.30;;;;;;4982215;28;20636;-72
2023/07/27 04:21:21;;;;;;;1.60;1.50;;;14.30;97.30;;;;;;4982843;28;20654;-72
2023/07/27 04:23:48;;;;;;;1.90;1.80;;;14.30;97.40;;;;;;4978977;28;20677;-72
2023/07/27 04:26:15;;;;;;;2.10;2.00;;;14.30;97.50;;;;;;4978547;28;21017;-73
2023/07/27 04:28:42;;;;;;;2.00;1.80;;;14.30;97.40;;;;;;4985135;28;20629;-72
2023/07/27 04:31:08;;;;;;;1.53;1.43;;;14.30;97.70;;;;;;4976302;28;20752;-72
2023/07/27 04:33:35;;;;;;;5.53;1.83;;;14.40;97.60;;;;;;4985365;28;20695;-73
2023/07/27 04:36:02;;;;;;;1.40;1.30;;;14.30;97.50;;;;;;4976533;28;21005;-73
2023/07/27 04:38:31;;;;;;;2.43;1.70;;;14.30;97.60;;;;;;4982041;28;20644;-72
2023/07/27 04:40:57;;;;;;;4.10;2.30;;;14.30;97.30;;;;;;4976769;28;20656;-72
2023/07/27 04:43:24;;;;;;;2.80;1.93;;;14.30;97.80;;;;;;4984263;28;20633;-72
2023/07/27 04:45:51;;;;;;;2.00;1.90;;;14.40;97.50;;;;;;4979946;28;20661;-72
2023/07/27 04:48:18;;;;;;;3.13;2.10;;;14.40;97.50;;;;;;4983926;28;20657;-73
2023/07/27 04:50:44;;;;;;;2.53;1.97;;;14.40;97.60;;;;;;4976587;28;20653;-73
2023/07/27 04:53:11;;;;;;;1.60;1.50;;;14.40;97.10;;;;;;4976505;28;20632;-73
2023/07/27 04:55:39;;;;;;;2.40;2.20;;;14.40;97.50;;;;;;4977364;28;20663;-73
2023/07/27 04:58:06;;;;;;;3.97;3.67;;;14.30;97.60;;;;;;4978511;28;21251;-73
2023/07/27 05:00:33;;;;;;;1.57;1.47;;;14.30;97.70;;;;;;4978455;28;20664;-72
2023/07/27 05:03:00;;;;;;;2.50;1.57;;;14.40;97.60;;;;;;4976485;28;20721;-72
2023/07/27 05:05:26;;;;;;;1.50;1.40;;;14.50;97.40;;;;;;4981561;28;20641;-72
2023/07/27 05:07:53;;;;;;;2.43;1.93;;;14.50;97.20;;;;;;4981840;28;20665;-71
2023/07/27 05:10:20;;;;;;;4.27;1.80;;;14.50;97.50;;;;;;4978869;28;20977;-73
2023/07/27 05:12:48;;;;;;;2.27;2.00;;;14.50;97.40;;;;;;4977306;28;20734;-72
2023/07/27 05:15:15;;;;;;;1.97;1.60;;;14.60;97.60;;;;;;4979625;28;20637;-70
2023/07/27 05:17:42;;;;;;;4.10;2.03;;;14.60;97.30;;;;;;4973915;28;20728;-70
2023/07/27 05:20:09;;;;;;;1.47;1.37;;;14.60;97.20;;;;;;4979101;28;20637;-70
2023/07/27 05:22:36;;;;;;;1.80;1.70;;;14.70;97.40;;;;;;4977612;28;20629;-70
2023/07/27 05:25:04;;;;;;;1.47;1.30;;;14.70;96.80;;;;;;4978061;28;20622;-69
2023/07/27 05:27:30;;;;;;;1.83;1.70;;;14.70;97.10;;;;;;4977240;28;20762;-70
2023/07/27 05:29:58;;;;;;;2.00;1.80;;;14.70;97.00;;;;;;4977759;28;21245;-71
2023/07/27 05:32:25;;;;;;;1.50;1.40;;;14.70;97.50;;;;;;4976573;28;20658;-71
2023/07/27 05:34:52;;;;;;;2.00;1.80;;;14.80;97.20;;;;;;4976341;28;20754;-71
2023/07/27 05:37:27;;;;;;;1.67;1.53;;;14.90;97.40;;;;;;4979654;28;20781;-71
2023/07/27 05:39:54;;;;;;;1.57;1.47;;;15.00;97.00;;;;;;4973499;28;20632;-71
2023/07/27 05:42:21;;;;;;;1.70;1.60;;;15.00;97.00;;;;;;4977784;28;20661;-71
2023/07/27 05:44:48;;;;;;;1.80;1.70;;;15.00;97.30;;;;;;4981487;28;21165;-71
2023/07/27 05:47:18;;;;;;;2.10;1.77;;;15.10;96.90;;;;;;4975577;28;20662;-71
2023/07/27 05:49:46;;;;;;;3.90;2.37;;;15.10;96.90;;;;;;4974006;28;21258;-71
2023/07/27 05:52:16;;;;;;;1.77;1.67;;;15.10;96.70;;;;;;4981009;28;20689;-71
2023/07/27 05:54:43;;;;;;;1.20;1.10;;;15.10;97.00;;;;;;4977982;28;20629;-70
2023/07/27 05:57:10;;;;;;;1.87;1.77;;;15.10;97.20;;;;;;4978077;28;20670;-70
2023/07/27 05:59:37;;;;;;;3.80;2.30;;;15.20;98.10;;;;;;4975242;28;20630;-70
2023/07/27 06:02:04;;;;;;;1.70;1.60;;;15.10;97.10;;;;;;4978786;28;20653;-70
2023/07/27 06:04:32;;;;;;;2.30;2.10;;;15.10;97.40;;;;;;4977709;28;20656;-75
2023/07/27 06:06:59;;;;;;;1.57;1.47;;;15.30;97.80;;;;;;4975744;28;20672;-72
2023/07/27 06:09:26;;;;;;;2.30;1.70;;;15.30;97.40;;;;;;4978025;28;20670;-74
2023/07/27 06:11:53;;;;;;;1.43;1.33;;;15.30;97.00;;;;;;4977747;28;20653;-74
2023/07/27 06:14:20;;;;;;;1.73;1.63;;;15.40;96.90;;;;;;4980045;28;20731;-76
2023/07/27 06:16:47;;;;;;;1.23;1.13;;;15.40;96.90;;;;;;4984756;28;20653;-75
2023/07/27 06:19:13;;;;;;;2.53;1.50;;;15.50;96.80;;;;;;4976176;28;20688;-76
2023/07/27 06:21:41;;;;;;;1.47;1.37;;;15.50;97.20;;;;;;4985436;28;20952;-76
2023/07/27 06:24:09;;;;;;;2.00;1.90;;;15.60;97.20;;;;;;4984192;28;20628;-76
2023/07/27 06:26:35;;;;;;;2.17;1.70;;;15.80;97.30;;;;;;4975556;28;20685;-75
2023/07/27 06:29:02;;;;;;;1.40;1.30;;;15.90;97.90;;;;;;4979452;28;20633;-76
2023/07/27 06:31:29;;;;;;;2.90;1.67;;;15.80;97.60;;;;;;4982467;28;20748;-75
2023/07/27 06:34:02;;;;;;;1.30;1.20;;;15.80;97.10;;;;;;4978908;28;21061;-75
2023/07/27 06:36:33;;;;;;;2.27;2.07;;;15.90;97.30;;;;;;4981589;28;20748;-74
2023/07/27 06:39:01;;;;;;;1.80;1.53;;;16.00;96.80;;;;;;4979129;28;20642;-75
2023/07/27 06:41:28;;;;;;;1.37;1.30;;;16.00;96.50;;;;;;4977551;28;20757;-74
2023/07/27 06:43:57;;;;;;;2.40;2.20;;;16.00;96.70;;;;;;4978434;28;20649;-75
2023/07/27 06:46:27;;;;;;;2.33;1.70;;;16.00;96.30;;;;;;4978571;28;21377;-73
2023/07/27 06:48:54;;;;;;;3.30;2.50;;;16.10;96.70;;;;;;4976473;28;20617;-74
2023/07/27 06:51:25;;;;;;;2.60;1.83;;;16.10;96.80;;;;;;4979423;28;20662;-74
2023/07/27 06:53:54;;;;;;;2.40;1.97;;;16.20;97.00;;;;;;4976798;28;20622;-75
2023/07/27 06:56:22;;;;;;;1.50;1.40;;;16.20;97.10;;;;;;4979004;28;20784;-73
2023/07/27 06:58:49;;;;;;;2.20;2.00;;;16.30;97.20;;;;;;4974267;28;20630;-76
2023/07/27 07:01:16;;;;;;;2.60;2.40;;;16.40;97.50;;;;;;4978275;28;20668;-75
2023/07/27 07:03:43;;;;;;;2.10;1.90;;;16.50;96.90;;;;;;4983158;28;20647;-73
2023/07/27 07:06:12;;;;;;;2.53;2.40;;;16.50;97.40;;;;;;4984465;28;20763;-78
2023/07/27 07:08:39;;;;;;;1.93;1.77;;;16.50;96.50;;;;;;4972216;28;20677;-76
2023/07/27 07:11:05;;;;;;;3.50;1.47;;;16.60;96.90;;;;;;4973751;28;21063;-76
2023/07/27 07:13:33;;;;;;;1.90;1.73;;;16.60;96.30;;;;;;4975939;28;20741;-75
2023/07/27 07:16:00;;;;;;;1.53;1.43;;;16.60;95.90;;;;;;4985914;28;20657;-70
2023/07/27 07:18:27;;;;;;;3.13;2.20;;;16.60;95.80;;;;;;4975424;28;20728;-70
2023/07/27 07:20:56;;;;;;;3.83;2.07;;;16.60;96.10;;;;;;4978540;28;20805;-71
2023/07/27 07:23:23;;;;;;;2.40;2.00;;;16.60;96.60;;;;;;4980400;28;20633;-71
2023/07/27 07:25:50;;;;;;;2.00;1.90;;;16.70;96.30;;;;;;4975119;28;21010;-71
2023/07/27 07:28:18;;;;;;;1.60;1.50;;;16.70;96.00;;;;;;4975259;28;20656;-71
2023/07/27 07:30:46;;;;;;;1.97;1.77;;;16.70;96.20;;;;;;4979486;28;21251;-71
2023/07/27 07:33:13;;;;;;;2.20;2.00;;;16.70;95.70;;;;;;4980958;28;20721;-72
2023/07/27 07:35:40;;;;;;;1.40;1.30;;;16.60;96.20;;;;;;4985892;28;20693;-72
2023/07/27 07:38:07;;;;;;;4.00;2.17;;;16.70;96.70;;;;;;4986342;28;21153;-71
2023/07/27 07:40:34;;;;;;;2.63;1.53;;;16.70;96.10;;;;;;4982273;28;20659;-72
2023/07/27 07:43:01;;;;;;;2.83;1.90;;;16.80;96.10;;;;;;4985726;28;20631;-71
2023/07/27 07:45:27;;;;;;;1.17;1.07;;;16.80;96.10;;;;;;4981394;28;20760;-72
2023/07/27 07:47:58;;;;;;;1.70;1.60;;;16.80;95.40;;;;;;4984138;28;21042;-70
2023/07/27 07:50:28;;;;;;;2.20;2.00;;;16.80;95.40;;;;;;4982176;28;21292;-71
2023/07/27 07:52:58;;;;;;;1.20;1.10;;;16.80;95.50;;;;;;4983646;28;20625;-72
2023/07/27 07:55:24;;;;;;;2.70;1.90;;;16.80;95.40;;;;;;4983468;28;20652;-72
2023/07/27 07:57:52;;;;;;;1.67;1.50;;;16.80;95.70;;;;;;4980344;28;20642;-71
2023/07/27 08:00:21;;;;;;;1.83;1.70;;;16.80;95.50;;;;;;4983820;28;20640;-71
2023/07/27 08:02:48;;;;;;;2.20;2.00;;;16.80;95.20;;;;;;4984530;28;20672;-71
2023/07/27 08:05:16;;;;;;;1.27;1.20;;;16.80;95.10;;;;;;4971044;28;20637;-70
2023/07/27 08:07:43;;;;;;;2.10;1.60;;;16.80;94.80;;;;;;4974588;28;20656;-71
2023/07/27 08:10:11;;;;;;;1.40;1.30;;;16.90;95.00;;;;;;4982960;28;20744;-71
2023/07/27 08:16:17;;;;;;;1.43;1.33;;;17.00;94.80;;;;;;4971306;28;20655;-72
2023/07/27 08:18:45;;;;;;;1.83;1.73;;;17.00;94.70;;;;;;4977813;28;20976;-71
2023/07/27 08:21:13;;;;;;;1.90;1.70;;;17.00;94.90;;;;;;4981141;28;20998;-72
2023/07/27 08:23:53;;;;;;;1.53;1.43;;;17.10;94.90;;;;;;4981136;28;20647;-71
2023/07/27 08:26:23;;;;;;;2.07;1.97;;;17.10;94.00;;;;;;4977467;28;20671;-72
2023/07/27 08:28:51;;;;;;;1.60;1.50;;;17.20;94.20;;;;;;4981856;28;21264;-72
2023/07/27 08:31:25;;;;;;;1.80;1.70;;;17.20;94.20;;;;;;4985112;28;20743;-71
2023/07/27 08:33:53;;;;;;;1.50;1.33;;;17.30;94.20;;;;;;4983302;28;20625;-72
2023/07/27 08:36:22;;;;;;;1.90;1.80;;;17.30;94.20;;;;;;4978305;28;20642;-70
2023/07/27 08:38:48;;;;;;;2.27;2.03;;;17.10;93.60;;;;;;4987088;28;20640;-71
2023/07/27 08:41:15;;;;;;;1.77;1.67;;;17.10;93.80;;;;;;4981232;28;21275;-71
2023/07/27 08:43:42;;;;;;;1.90;1.80;;;17.20;93.90;;;;;;4984763;28;20643;-71
2023/07/27 08:46:10;;;;;;;1.50;1.40;;;17.20;93.90;;;;;;4981704;28;20642;-71
2023/07/27 08:48:38;;;;;;;1.90;1.80;;;17.20;94.50;;;;;;4980446;28;21214;-71
2023/07/27 08:51:05;;;;;;;1.40;1.30;;;17.30;94.40;;;;;;4983843;28;21283;-71
2023/07/27 08:53:33;;;;;;;1.70;1.60;;;17.50;93.60;;;;;;4979241;28;20692;-71
2023/07/27 08:56:00;;;;;;;2.10;1.40;;;17.40;93.70;;;;;;4982145;28;21026;-71
2023/07/27 08:58:42;;;;;;;1.57;1.40;;;17.50;94.00;;;;;;4979836;28;20632;-74
2023/07/27 09:01:09;;;;;;;1.60;1.50;;;17.60;93.50;;;;;;4980697;28;21234;-73
2023/07/27 09:03:42;;;;;;;1.53;1.30;;;17.60;93.70;;;;;;4980907;28;20629;-72
2023/07/27 09:06:13;;;;;;;1.70;1.60;;;17.70;93.40;;;;;;4982259;28;20644;-73
2023/07/27 09:08:44;;;;;;;1.20;1.10;;;17.80;92.70;;;;;;4980308;28;20728;-73
2023/07/27 09:11:12;;;;;;;1.97;1.63;;;17.80;93.00;;;;;;4982354;28;20645;-72
2023/07/27 09:13:39;;;;;;;2.10;1.90;;;17.80;93.00;;;;;;4980420;28;20704;-72
2023/07/27 09:16:08;;;;;;;2.07;1.80;;;17.80;93.10;;;;;;4980230;28;20772;-71
2023/07/27 09:18:36;;;;;;;1.83;1.73;;;17.80;93.00;;;;;;4983640;28;20620;-71
2023/07/27 09:21:07;;;;;;;3.30;1.70;;;17.80;93.10;;;;;;4979209;28;20667;-71
2023/07/27 09:23:35;;;;;;;2.73;2.07;;;17.70;93.00;;;;;;4975802;28;20642;-71
2023/07/27 09:26:03;;;;;;;2.20;2.00;;;17.80;93.50;;;;;;4980054;28;21206;-71
2023/07/27 09:28:30;;;;;;;1.80;1.60;;;17.70;94.20;;;;;;4979570;28;20666;-71
2023/07/27 09:30:59;;;;;;;1.70;1.57;;;17.70;94.40;;;;;;4977995;28;20656;-71
2023/07/27 09:33:27;;;;;;;1.90;1.80;;;17.60;95.70;;;;;;4979293;28;20979;-73
2023/07/27 09:35:56;;;;;;;2.00;1.80;;;17.50;95.80;;;;;;4979511;28;20650;-72
2023/07/27 09:38:27;;;;;;;2.33;2.13;;;17.50;97.20;;;;;;4979751;28;20621;-72
2023/07/27 09:40:54;;;;;;;1.60;1.50;;;17.40;97.40;;;;;;4975920;28;20654;-72
2023/07/27 09:43:24;;;;;;;1.97;1.73;;;17.30;96.60;;;;;;4978856;28;20633;-73
2023/07/27 09:45:58;;;;;;;2.00;1.90;;;17.40;97.10;;;;;;4977961;28;20780;-71
2023/07/27 09:48:25;;;;;;;2.07;1.90;;;17.30;97.20;;;;;;4980896;28;20743;-71
2023/07/27 09:50:54;;;;;;;2.23;2.07;;;17.30;97.30;;;;;;4978756;28;20752;-71
2023/07/27 09:53:21;;;;;;;1.67;1.57;;;17.30;97.00;;;;;;4974962;28;21263;-71
2023/07/27 09:55:56;;;;;;;1.80;1.70;;;17.20;97.30;;;;;;4976084;28;20684;-72
2023/07/27 09:58:31;;;;;;;1.80;1.37;;;17.30;96.80;;;;;;4981148;28;20676;-74
2023/07/27 10:01:00;;;;;;;2.03;1.80;;;17.20;97.40;;;;;;4979141;28;20717;-74
2023/07/27 10:03:30;;;;;;;2.03;1.83;;;17.20;96.90;;;;;;4978623;28;20629;-72
2023/07/27 10:05:57;;;;;;;2.70;1.83;;;17.30;97.30;;;;;;4977862;28;20649;-72
2023/07/27 10:08:25;;;;;;;1.80;1.70;;;17.30;97.30;;;;;;4974481;28;20666;-72
2023/07/27 10:10:54;;;;;;;1.87;1.77;;;17.30;97.70;;;;;;4977859;28;20656;-72
2023/07/27 10:13:39;;;;;;;2.47;1.97;;;17.30;96.90;;;;;;4976227;28;20628;-72
2023/07/27 10:16:09;;;;;;;2.00;1.70;;;17.30;97.10;;;;;;4973060;28;20669;-75
2023/07/27 10:18:41;;;;;;;2.10;1.90;;;17.30;96.10;;;;;;4973463;28;20633;-75
2023/07/27 10:21:25;;;;;;;1.90;1.80;;;17.30;96.80;;;;;;4974444;28;20646;-75
2023/07/27 10:23:57;;;;;;;1.40;1.30;;;17.50;96.70;;;;;;4977429;28;21067;-76
2023/07/27 10:26:50;;;;;;;1.60;1.50;;;17.50;96.50;;;;;;4978426;28;20656;-78
2023/07/27 10:29:23;;;;;;;2.37;2.07;;;17.60;96.20;;;;;;4977093;28;20674;-76
2023/07/27 10:32:02;;;;;;;2.07;1.97;;;17.70;96.20;;;;;;4978257;28;20749;-75
2023/07/27 10:34:30;;;;;;;1.83;1.40;;;17.80;95.70;;;;;;4974398;28;20725;-74
2023/07/27 10:36:59;;;;;;;1.57;1.47;;;17.90;95.20;;;;;;4979335;28;20760;-75
2023/07/27 10:39:30;;;;;;;2.20;2.00;;;18.10;95.80;;;;;;4978958;28;21236;-80
2023/07/27 10:42:08;;;;;;;2.00;1.80;;;18.30;95.50;;;;;;4975050;28;20661;-80
2023/07/27 10:44:44;;;;;;;1.97;1.77;;;18.40;94.30;;;;;;4978365;28;20631;-77
2023/07/27 10:47:12;;;;;;;1.67;1.30;;;18.60;94.30;;;;;;4975990;28;20656;-73
2023/07/27 10:49:40;;;;;;;2.97;1.53;;;18.80;93.50;;;;;;4983039;28;20668;-73
2023/07/27 10:52:07;;;;;;;3.00;1.90;;;18.90;93.80;;;;;;4971280;28;20650;-73
2023/07/27 10:54:38;;;;;;;2.10;1.50;;;19.10;93.60;;;;;;4980655;28;20640;-73
2023/07/27 10:57:07;;;;;;;2.27;2.07;;;19.30;93.10;;;;;;4973212;28;21229;-73
2023/07/27 10:59:37;;;;;;;1.60;1.50;;;19.30;93.40;;;;;;4981611;28;20637;-72
2023/07/27 11:02:15;;;;;;;6.97;1.70;;;19.30;94.70;;;;;;4973906;28;20735;-72
2023/07/27 11:04:42;;;;;;;2.07;1.87;;;19.30;93.40;;;;;;4978236;28;20928;-72
2023/07/27 11:07:10;;;;;;;1.70;1.60;;;19.40;93.00;;;;;;4971827;28;20656;-71
2023/07/27 11:09:38;;;;;;;1.53;1.27;;;19.50;93.70;;;;;;4978947;28;20655;-71
2023/07/27 11:12:05;;;;;;;1.70;1.60;;;19.70;92.70;;;;;;4977027;28;20773;-72
2023/07/27 11:14:32;;;;;;;2.60;1.90;;;19.90;92.20;;;;;;4984005;28;20641;-70
2023/07/27 11:16:59;;;;;;;1.93;1.73;;;20.00;92.60;;;;;;4979301;28;20758;-72
2023/07/27 11:19:28;;;;;;;2.30;2.00;;;20.20;92.30;;;;;;4972131;28;20730;-73
2023/07/27 11:21:56;;;;;;;2.40;1.97;;;20.20;91.00;;;;;;4980655;28;20644;-72
2023/07/27 11:24:22;;;;;;;1.70;1.60;;;20.30;91.40;;;;;;4981539;28;20657;-72
2023/07/27 11:26:49;;;;;;;3.47;1.70;;;20.30;91.50;;;;;;4982325;28;20650;-72
2023/07/27 11:29:17;;;;;;;2.30;1.57;;;20.30;91.70;;;;;;4974815;28;20655;-73
2023/07/27 11:31:53;;;;;;;1.60;1.50;;;20.30;91.10;;;;;;4978653;28;20717;-72
2023/07/27 11:34:23;;;;;;;1.70;1.60;;;20.20;91.70;;;;;;4972353;28;20635;-72
2023/07/27 11:36:54;;;;;;;1.60;1.50;;;20.30;92.00;;;;;;4982466;28;21560;-72
2023/07/27 11:39:21;;;;;;;1.83;1.60;;;20.10;91.50;;;;;;4987327;28;21205;-72
2023/07/27 11:41:49;;;;;;;2.33;1.40;;;20.10;92.60;;;;;;4978287;28;20784;-72
2023/07/27 11:44:17;;;;;;;1.70;1.60;;;20.00;91.90;;;;;;4971542;28;20626;-72
2023/07/27 11:46:47;;;;;;;1.50;1.40;;;20.10;92.00;;;;;;4979111;28;21018;-72
2023/07/27 11:49:14;;;;;;;1.43;1.13;;;20.10;91.80;;;;;;4977251;28;20747;-72
2023/07/27 11:51:42;;;;;;;1.40;1.30;;;20.10;92.50;;;;;;4978029;28;20658;-72
2023/07/27 11:54:10;;;;;;;2.40;1.37;;;20.00;92.80;;;;;;4979723;28;20623;-72
2023/07/27 11:56:37;;;;;;;2.03;1.60;;;19.80;93.20;;;;;;4973129;28;20670;-73
2023/07/27 11:59:05;;;;;;;1.73;1.63;;;19.90;93.30;;;;;;4974823;28;20629;-72
2023/07/27 12:01:34;;;;;;;1.77;1.67;;;19.80;94.10;;;;;;4980921;28;20657;-72
2023/07/27 12:04:01;;;;;;;2.00;1.70;;;19.80;95.50;;;;;;4983577;28;20640;-72
2023/07/27 12:06:29;;;;;;;1.57;1.47;;;19.80;96.40;;;;;;4979043;28;20654;-72
2023/07/27 12:08:56;;;;;;;2.33;1.90;;;19.80;97.00;;;;;;4979596;28;20670;-72
2023/07/27 12:11:27;;;;;;;1.90;1.30;;;19.70;98.10;;;;;;4979581;28;20684;-72
2023/07/27 12:13:54;;;;;;;2.30;1.57;;;19.70;98.80;;;;;;4981107;28;20633;-71
2023/07/27 12:16:21;;;;;;;1.10;1.00;;;19.70;99.20;;;;;;4980259;28;20677;-72
2023/07/27 12:18:48;;;;;;;1.70;1.60;;;19.70;99.70;;;;;;4981672;28;20633;-71
2023/07/27 12:21:16;;;;;;;1.90;1.80;;;19.60;99.90;;;;;;4978709;28;20647;-70
2023/07/27 12:23:43;;;;;;;1.87;1.73;;;19.40;99.90;;;;;;4975522;28;20724;-70
2023/07/27 12:26:10;;;;;;;1.77;1.67;;;19.40;99.90;;;;;;4982045;28;21080;-70
2023/07/27 12:28:38;;;;;;;4.13;2.00;;;19.40;99.90;;;;;;4976111;28;20658;-73
2023/07/27 12:31:05;;;;;;;1.70;1.60;;;19.40;99.90;;;;;;4977187;28;20654;-72
2023/07/27 12:33:31;;;;;;;1.50;1.40;;;19.30;99.90;;;;;;4979268;28;20637;-73
2023/07/27 12:35:58;;;;;;;1.80;1.70;;;19.20;99.90;;;;;;4975544;28;20663;-72
2023/07/27 12:38:26;;;;;;;1.60;1.50;;;19.30;99.90;;;;;;4982292;28;20628;-72
2023/07/27 12:40:53;;;;;;;1.60;1.50;;;19.20;99.90;;;;;;4978432;28;20653;-72
2023/07/27 12:43:22;;;;;;;2.00;1.90;;;19.10;99.90;;;;;;4981895;28;20633;-70
2023/07/27 12:45:50;;;;;;;2.53;1.70;;;19.10;99.90;;;;;;4975383;28;21380;-71
2023/07/27 12:48:17;;;;;;;1.80;1.70;;;19.10;99.90;;;;;;4978803;28;21006;-71
2023/07/27 12:50:45;;;;;;;1.80;1.53;;;19.10;99.90;;;;;;4979835;28;20669;-72
2023/07/27 12:53:12;;;;;;;2.47;1.80;;;19.20;99.90;;;;;;4980142;28;20621;-71
2023/07/27 12:55:39;;;;;;;1.50;1.40;;;19.20;99.90;;;;;;4975504;28;20785;-71
2023/07/27 12:58:06;;;;;;;1.60;1.50;;;19.10;99.90;;;;;;4982916;28;20721;-71